createdAt,value
2022-09-14T00:00:02.590Z,1005.03
2022-09-14T00:01:24.170Z,1005.03
2022-09-14T00:02:02.648Z,1005.03
2022-09-14T00:03:02.539Z,1005.03
2022-09-14T00:04:02.398Z,1004.97
2022-09-14T00:05:02.354Z,1004.96
2022-09-14T00:06:02.309Z,1004.91
2022-09-14T00:07:02.266Z,1004.89
2022-09-14T00:08:02.222Z,1004.89
2022-09-14T00:09:02.191Z,1004.85
2022-09-14T00:10:02.134Z,1004.89
2022-09-14T00:11:02.091Z,1004.92
2022-09-14T00:12:02.045Z,1004.94
2022-09-14T00:13:02.001Z,1004.97
2022-09-14T00:14:01.968Z,1004.97
2022-09-14T00:15:01.915Z,1004.95
2022-09-14T00:16:01.887Z,1005.00
2022-09-14T00:17:01.900Z,1004.97
2022-09-14T00:18:01.781Z,1004.92
2022-09-14T00:19:01.737Z,1004.93
2022-09-14T00:20:01.693Z,1004.87
2022-09-14T00:21:01.649Z,1004.82
2022-09-14T00:22:01.605Z,1004.74
2022-09-14T00:23:01.566Z,1004.73
2022-09-14T00:24:01.520Z,1004.74
2022-09-14T00:25:01.476Z,1004.70
2022-09-14T00:26:01.428Z,1004.69
2022-09-14T00:27:01.387Z,1004.69
2022-09-14T00:28:01.392Z,1004.68
2022-09-14T00:29:01.298Z,1004.64
2022-09-14T00:30:01.250Z,1004.65
2022-09-14T00:31:01.212Z,1004.65
2022-09-14T00:32:01.397Z,1004.63
2022-09-14T00:33:01.123Z,1004.61
2022-09-14T00:34:01.075Z,1004.59
2022-09-14T00:35:01.034Z,1004.61
2022-09-14T00:36:00.987Z,1004.61
2022-09-14T00:37:00.944Z,1004.59
2022-09-14T00:38:00.898Z,1004.55
2022-09-14T00:39:01.055Z,1004.57
2022-09-14T00:40:00.845Z,1004.56
2022-09-14T00:41:00.768Z,1004.55
2022-09-14T00:42:00.727Z,1004.52
2022-09-14T00:43:00.683Z,1004.47
2022-09-14T00:44:00.642Z,1004.46
2022-09-14T00:45:00.592Z,1004.46
2022-09-14T00:46:00.599Z,1004.44
2022-09-14T00:47:00.506Z,1004.40
2022-09-14T00:48:00.561Z,1004.32
2022-09-14T00:49:00.416Z,1004.33
2022-09-14T00:50:00.372Z,1004.31
2022-09-14T00:51:00.327Z,1004.27
2022-09-14T00:52:00.281Z,1004.23
2022-09-14T00:53:00.238Z,1004.17
2022-09-14T00:54:00.193Z,1004.19
2022-09-14T00:55:00.165Z,1004.17
2022-09-14T00:56:00.108Z,1004.15
2022-09-14T00:57:00.071Z,1004.16
2022-09-14T00:58:00.020Z,1004.16
2022-09-14T00:58:59.979Z,1004.13
2022-09-14T00:59:59.928Z,1004.14
2022-09-14T01:00:59.919Z,1004.13
2022-09-14T01:01:59.896Z,1004.08
2022-09-14T01:02:59.797Z,1004.08
2022-09-14T01:03:59.769Z,1004.08
2022-09-14T01:04:59.707Z,1004.06
2022-09-14T01:05:59.662Z,1004.04
2022-09-14T01:07:59.576Z,1004.04
2022-09-14T01:08:59.532Z,1004.01
2022-09-14T01:09:59.487Z,1003.94
2022-09-14T01:10:59.442Z,1003.96
2022-09-14T01:11:59.398Z,1004.00
2022-09-14T01:12:59.353Z,1003.99
2022-09-14T01:13:59.310Z,1003.95
2022-09-14T01:14:59.263Z,1003.97
2022-09-14T01:15:59.296Z,1004.03
2022-09-14T01:16:59.176Z,1004.02
2022-09-14T01:17:59.140Z,1004.01
2022-09-14T01:18:59.140Z,1004.04
2022-09-14T01:19:59.064Z,1004.08
2022-09-14T01:20:59.000Z,1004.09
2022-09-14T01:21:58.955Z,1004.11
2022-09-14T01:22:58.912Z,1004.09
2022-09-14T01:23:58.868Z,1004.10
2022-09-14T01:24:58.822Z,1004.11
2022-09-14T01:25:58.779Z,1004.10
2022-09-14T01:26:58.736Z,1004.05
2022-09-14T01:27:58.691Z,1004.08
2022-09-14T01:28:58.645Z,1004.05
2022-09-14T01:29:58.604Z,1004.04
2022-09-14T01:30:58.557Z,1004.02
2022-09-14T01:31:58.650Z,1003.98
2022-09-14T01:32:58.466Z,1003.98
2022-09-14T01:33:58.427Z,1003.95
2022-09-14T01:34:58.385Z,1003.96
2022-09-14T01:35:58.358Z,1003.95
2022-09-14T01:36:58.289Z,1003.95
2022-09-14T01:37:58.253Z,1003.92
2022-09-14T01:38:58.206Z,1003.92
2022-09-14T01:39:58.269Z,1003.97
2022-09-14T01:40:58.125Z,1004.00
2022-09-14T01:41:58.078Z,1003.95
2022-09-14T01:42:58.027Z,1003.94
2022-09-14T01:43:57.984Z,1003.94
2022-09-14T01:44:57.936Z,1003.93
2022-09-14T01:45:57.982Z,1003.92
2022-09-14T01:46:57.848Z,1003.93
2022-09-14T01:47:57.805Z,1003.94
2022-09-14T01:48:57.759Z,1003.93
2022-09-14T01:49:57.715Z,1003.93
2022-09-14T01:50:57.672Z,1003.95
2022-09-14T01:51:57.646Z,1003.96
2022-09-14T01:52:57.586Z,1003.98
2022-09-14T01:53:57.539Z,1003.96
2022-09-14T01:54:57.495Z,1003.94
2022-09-14T01:55:57.450Z,1003.93
2022-09-14T01:56:57.403Z,1003.92
2022-09-14T01:57:57.360Z,1003.91
2022-09-14T01:58:57.319Z,1003.89
2022-09-14T01:59:57.282Z,1003.87
2022-09-14T02:00:57.264Z,1003.86
2022-09-14T02:02:57.141Z,1003.85
2022-09-14T02:03:57.095Z,1003.81
2022-09-14T02:04:57.050Z,1003.83
2022-09-14T02:05:57.005Z,1003.85
2022-09-14T02:06:56.962Z,1003.82
2022-09-14T02:07:57.021Z,1003.81
2022-09-14T02:08:56.870Z,1003.83
2022-09-14T02:09:56.824Z,1003.85
2022-09-14T02:10:56.787Z,1003.85
2022-09-14T02:11:56.737Z,1003.84
2022-09-14T02:12:56.693Z,1003.85
2022-09-14T02:13:56.647Z,1003.85
2022-09-14T02:14:56.604Z,1003.87
2022-09-14T02:15:56.645Z,1003.84
2022-09-14T02:16:56.517Z,1003.82
2022-09-14T02:17:56.479Z,1003.83
2022-09-14T02:18:56.426Z,1003.84
2022-09-14T02:19:56.381Z,1003.83
2022-09-14T02:20:56.337Z,1003.82
2022-09-14T02:21:56.294Z,1003.84
2022-09-14T02:22:56.252Z,1003.87
2022-09-14T02:23:56.220Z,1003.86
2022-09-14T02:24:56.160Z,1003.88
2022-09-14T02:25:56.121Z,1003.87
2022-09-14T02:26:56.072Z,1003.90
2022-09-14T02:27:56.026Z,1003.88
2022-09-14T02:28:56.000Z,1003.87
2022-09-14T02:29:55.933Z,1003.84
2022-09-14T02:30:55.893Z,1003.81
2022-09-14T02:31:55.877Z,1003.81
2022-09-14T02:32:55.803Z,1003.80
2022-09-14T02:33:55.760Z,1003.79
2022-09-14T02:34:55.715Z,1003.81
2022-09-14T02:35:55.677Z,1003.81
2022-09-14T02:36:55.627Z,1003.86
2022-09-14T02:37:55.588Z,1003.79
2022-09-14T02:38:55.538Z,1003.77
2022-09-14T02:39:55.634Z,1003.76
2022-09-14T02:40:55.447Z,1003.74
2022-09-14T02:41:55.401Z,1003.75
2022-09-14T02:42:55.360Z,1003.77
2022-09-14T02:43:55.316Z,1003.77
2022-09-14T02:44:55.270Z,1003.75
2022-09-14T02:45:55.222Z,1003.73
2022-09-14T02:46:55.330Z,1003.72
2022-09-14T02:47:55.134Z,1003.72
2022-09-14T02:48:55.093Z,1003.69
2022-09-14T02:49:55.045Z,1003.72
2022-09-14T02:50:55.006Z,1003.67
2022-09-14T02:51:54.956Z,1003.66
2022-09-14T02:52:54.911Z,1003.62
2022-09-14T02:53:54.866Z,1003.66
2022-09-14T02:54:54.822Z,1003.65
2022-09-14T02:55:54.794Z,1003.63
2022-09-14T02:56:54.739Z,1003.64
2022-09-14T02:57:54.690Z,1003.63
2022-09-14T02:58:54.648Z,1003.63
2022-09-14T02:59:54.608Z,1003.64
2022-09-14T03:00:54.611Z,1003.66
2022-09-14T03:01:54.571Z,1003.62
2022-09-14T03:02:54.466Z,1003.61
2022-09-14T03:03:54.421Z,1003.58
2022-09-14T03:04:54.375Z,1003.58
2022-09-14T03:05:54.331Z,1003.65
2022-09-14T03:06:54.294Z,1003.58
2022-09-14T03:07:54.245Z,1003.60
2022-09-14T03:08:54.197Z,1003.59
2022-09-14T03:09:54.154Z,1003.58
2022-09-14T03:10:54.110Z,1003.57
2022-09-14T03:11:54.081Z,1003.56
2022-09-14T03:12:54.024Z,1003.57
2022-09-14T03:13:53.983Z,1003.53
2022-09-14T03:14:53.931Z,1003.57
2022-09-14T03:15:53.938Z,1003.55
2022-09-14T03:16:53.843Z,1003.54
2022-09-14T03:17:53.796Z,1003.53
2022-09-14T03:18:53.762Z,1003.50
2022-09-14T03:19:53.707Z,1003.50
2022-09-14T03:20:53.663Z,1003.47
2022-09-14T03:21:53.626Z,1003.44
2022-09-14T03:22:53.576Z,1003.40
2022-09-14T03:23:53.529Z,1003.41
2022-09-14T03:24:53.495Z,1003.38
2022-09-14T03:25:53.440Z,1003.35
2022-09-14T03:26:53.399Z,1003.35
2022-09-14T03:27:53.367Z,1003.35
2022-09-14T03:28:53.305Z,1003.31
2022-09-14T03:29:53.263Z,1003.32
2022-09-14T03:30:53.280Z,1003.35
2022-09-14T03:31:53.229Z,1003.28
2022-09-14T03:32:53.128Z,1003.30
2022-09-14T03:33:53.084Z,1003.29
2022-09-14T03:34:53.042Z,1003.24
2022-09-14T03:35:52.995Z,1003.28
2022-09-14T03:36:52.952Z,1003.23
2022-09-14T03:37:52.903Z,1003.19
2022-09-14T03:38:52.860Z,1003.18
2022-09-14T03:39:52.848Z,1003.19
2022-09-14T03:40:52.778Z,1003.22
2022-09-14T03:41:52.725Z,1003.21
2022-09-14T03:42:52.682Z,1003.19
2022-09-14T03:43:52.657Z,1003.18
2022-09-14T03:44:52.594Z,1003.21
2022-09-14T03:45:52.547Z,1003.17
2022-09-14T03:46:52.565Z,1003.20
2022-09-14T03:47:52.460Z,1003.20
2022-09-14T03:48:52.414Z,1003.19
2022-09-14T03:49:52.369Z,1003.15
2022-09-14T03:50:52.325Z,1003.20
2022-09-14T03:51:55.267Z,1003.18
2022-09-14T03:52:52.236Z,1003.21
2022-09-14T03:53:52.209Z,1003.21
2022-09-14T03:54:52.146Z,1003.18
2022-09-14T03:55:52.100Z,1003.17
2022-09-14T03:56:52.055Z,1003.16
2022-09-14T03:57:52.011Z,1003.14
2022-09-14T03:58:51.969Z,1003.17
2022-09-14T03:59:51.939Z,1003.12
2022-09-14T04:00:51.885Z,1003.16
2022-09-14T04:01:51.866Z,1003.09
2022-09-14T04:02:51.835Z,1003.09
2022-09-14T04:04:51.698Z,1003.12
2022-09-14T04:05:51.656Z,1003.09
2022-09-14T04:06:51.611Z,1003.11
2022-09-14T04:07:51.567Z,1003.09
2022-09-14T04:08:51.518Z,1003.06
2022-09-14T04:09:51.480Z,1003.13
2022-09-14T04:10:51.430Z,1003.16
2022-09-14T04:11:51.394Z,1003.14
2022-09-14T04:12:51.342Z,1003.15
2022-09-14T04:13:51.322Z,1003.15
2022-09-14T04:14:51.251Z,1003.11
2022-09-14T04:15:51.271Z,1003.10
2022-09-14T04:16:51.164Z,1003.15
2022-09-14T04:17:51.117Z,1003.13
2022-09-14T04:18:51.078Z,1003.11
2022-09-14T04:19:51.031Z,1003.12
2022-09-14T04:20:50.987Z,1003.10
2022-09-14T04:21:50.938Z,1003.13
2022-09-14T04:24:13.555Z,1003.13
2022-09-14T04:24:51.009Z,1003.13
2022-09-14T04:25:50.762Z,1003.11
2022-09-14T04:26:50.716Z,1003.12
2022-09-14T04:28:04.239Z,1003.11
2022-09-14T04:28:50.624Z,1003.12
2022-09-14T04:30:50.570Z,1003.11
2022-09-14T04:31:50.596Z,1003.10
2022-09-14T04:32:50.447Z,1003.13
2022-09-14T04:33:50.403Z,1003.13
2022-09-14T04:34:50.362Z,1003.10
2022-09-14T04:35:50.313Z,1003.11
2022-09-14T04:36:50.505Z,1003.10
2022-09-14T04:37:50.224Z,1003.10
2022-09-14T04:38:50.258Z,1003.10
2022-09-14T04:39:50.186Z,1003.12
2022-09-14T04:40:50.090Z,1003.12
2022-09-14T04:41:50.044Z,1003.13
2022-09-14T04:42:50.002Z,1003.08
2022-09-14T04:43:49.957Z,1003.09
2022-09-14T04:44:49.914Z,1003.11
2022-09-14T04:45:49.865Z,1003.14
2022-09-14T04:46:49.872Z,1003.16
2022-09-14T04:47:49.795Z,1003.11
2022-09-14T04:48:49.764Z,1003.13
2022-09-14T04:49:49.687Z,1003.14
2022-09-14T04:50:49.644Z,1003.10
2022-09-14T04:51:49.600Z,1003.12
2022-09-14T04:52:49.552Z,1003.10
2022-09-14T04:53:49.508Z,1003.09
2022-09-14T04:54:49.465Z,1003.09
2022-09-14T04:55:49.419Z,1003.10
2022-09-14T04:56:49.373Z,1003.11
2022-09-14T04:57:49.330Z,1003.13
2022-09-14T04:58:51.603Z,1003.13
2022-09-14T04:59:49.240Z,1003.09
2022-09-14T05:00:49.195Z,1003.13
2022-09-14T05:01:49.189Z,1003.11
2022-09-14T05:02:49.186Z,1003.14
2022-09-14T05:03:49.088Z,1003.10
2022-09-14T05:04:49.016Z,1003.14
2022-09-14T05:05:48.969Z,1003.14
2022-09-14T05:06:48.927Z,1003.17
2022-09-14T05:07:48.881Z,1003.16
2022-09-14T05:08:48.845Z,1003.18
2022-09-14T05:09:48.796Z,1003.14
2022-09-14T05:10:48.749Z,1003.18
2022-09-14T05:11:48.702Z,1003.17
2022-09-14T05:12:48.660Z,1003.18
2022-09-14T05:13:50.283Z,1003.17
2022-09-14T05:14:48.568Z,1003.19
2022-09-14T05:15:48.615Z,1003.17
2022-09-14T05:16:48.490Z,1003.20
2022-09-14T05:17:48.436Z,1003.18
2022-09-14T05:18:48.473Z,1003.17
2022-09-14T05:19:48.489Z,1003.17
2022-09-14T05:20:48.301Z,1003.15
2022-09-14T05:21:48.257Z,1003.15
2022-09-14T05:22:48.211Z,1003.15
2022-09-14T05:23:48.168Z,1003.19
2022-09-14T05:24:48.123Z,1003.21
2022-09-14T05:25:48.081Z,1003.20
2022-09-14T05:26:48.038Z,1003.23
2022-09-14T05:27:47.990Z,1003.23
2022-09-14T05:28:47.946Z,1003.23
2022-09-14T05:29:47.904Z,1003.21
2022-09-14T05:30:47.918Z,1003.26
2022-09-14T05:31:47.814Z,1003.19
2022-09-14T05:32:47.762Z,1003.21
2022-09-14T05:33:47.808Z,1003.18
2022-09-14T05:34:47.672Z,1003.18
2022-09-14T05:35:47.644Z,1003.14
2022-09-14T05:36:47.583Z,1003.16
2022-09-14T05:37:47.536Z,1003.09
2022-09-14T05:38:47.492Z,1003.12
2022-09-14T05:39:47.480Z,1003.17
2022-09-14T05:40:47.405Z,1003.15
2022-09-14T05:41:47.359Z,1003.12
2022-09-14T05:42:47.316Z,1003.09
2022-09-14T05:43:47.266Z,1003.14
2022-09-14T05:44:47.223Z,1003.13
2022-09-14T05:45:47.176Z,1003.13
2022-09-14T05:46:47.190Z,1003.15
2022-09-14T05:47:47.087Z,1003.17
2022-09-14T05:48:47.044Z,1003.14
2022-09-14T05:49:46.998Z,1003.15
2022-09-14T05:50:46.956Z,1003.16
2022-09-14T05:51:46.927Z,1003.09
2022-09-14T05:52:46.869Z,1003.10
2022-09-14T05:53:46.816Z,1003.06
2022-09-14T05:54:46.778Z,1003.06
2022-09-14T05:55:46.733Z,1003.04
2022-09-14T05:56:46.691Z,1003.06
2022-09-14T05:57:46.636Z,1003.07
2022-09-14T05:58:46.595Z,1003.10
2022-09-14T05:59:46.553Z,1003.07
2022-09-14T06:00:46.502Z,1003.10
2022-09-14T06:01:46.509Z,1003.03
2022-09-14T06:02:46.412Z,1003.07
2022-09-14T06:03:46.373Z,1003.02
2022-09-14T06:04:46.325Z,1003.01
2022-09-14T06:05:46.367Z,1002.95
2022-09-14T06:06:56.141Z,1002.97
2022-09-14T06:07:46.226Z,1002.97
2022-09-14T06:08:46.142Z,1002.96
2022-09-14T06:09:46.101Z,1002.95
2022-09-14T06:10:46.053Z,1002.95
2022-09-14T06:11:46.008Z,1002.99
2022-09-14T06:12:45.961Z,1002.93
2022-09-14T06:13:45.916Z,1002.97
2022-09-14T06:14:45.872Z,1002.96
2022-09-14T06:15:45.829Z,1002.97
2022-09-14T06:16:45.823Z,1002.95
2022-09-14T06:17:45.736Z,1002.97
2022-09-14T06:18:45.693Z,1002.97
2022-09-14T06:19:45.646Z,1002.96
2022-09-14T06:20:45.604Z,1002.98
2022-09-14T06:21:45.555Z,1003.00
2022-09-14T06:22:45.514Z,1002.99
2022-09-14T06:23:45.483Z,1003.02
2022-09-14T06:24:45.424Z,1003.00
2022-09-14T06:25:45.378Z,1003.03
2022-09-14T06:26:45.334Z,1003.03
2022-09-14T06:27:45.284Z,1003.04
2022-09-14T06:28:45.241Z,1003.06
2022-09-14T06:29:45.206Z,1003.02
2022-09-14T06:30:45.159Z,1002.99
2022-09-14T06:31:45.105Z,1003.04
2022-09-14T06:32:45.067Z,1003.00
2022-09-14T06:33:45.017Z,1003.03
2022-09-14T06:34:44.976Z,1003.04
2022-09-14T06:35:44.929Z,1003.03
2022-09-14T06:36:44.891Z,1003.06
2022-09-14T06:37:44.858Z,1003.05
2022-09-14T06:38:44.790Z,1003.05
2022-09-14T06:39:44.816Z,1003.05
2022-09-14T06:40:44.701Z,1003.03
2022-09-14T06:41:44.660Z,1003.03
2022-09-14T06:42:44.614Z,1003.08
2022-09-14T06:43:44.564Z,1003.06
2022-09-14T06:44:44.519Z,1003.09
2022-09-14T06:45:44.476Z,1003.10
2022-09-14T06:46:47.500Z,1003.10
2022-09-14T06:47:44.388Z,1003.11
2022-09-14T06:48:44.340Z,1003.08
2022-09-14T06:49:44.294Z,1003.07
2022-09-14T06:50:44.248Z,1003.06
2022-09-14T06:51:44.201Z,1003.06
2022-09-14T06:52:44.159Z,1003.10
2022-09-14T06:53:44.188Z,1003.09
2022-09-14T06:54:44.070Z,1003.08
2022-09-14T06:55:44.041Z,1003.09
2022-09-14T06:56:43.978Z,1003.10
2022-09-14T06:57:43.931Z,1003.12
2022-09-14T06:58:43.889Z,1003.09
2022-09-14T06:59:43.850Z,1003.05
2022-09-14T07:00:43.799Z,1003.07
2022-09-14T07:01:43.751Z,1003.11
2022-09-14T07:02:43.830Z,1003.05
2022-09-14T07:03:43.662Z,1003.13
2022-09-14T07:04:43.622Z,1003.13
2022-09-14T07:05:43.572Z,1003.11
2022-09-14T07:06:43.531Z,1003.09
2022-09-14T07:07:43.481Z,1003.07
2022-09-14T07:08:43.507Z,1003.11
2022-09-14T07:09:43.389Z,1003.09
2022-09-14T07:10:43.361Z,1003.13
2022-09-14T07:11:43.318Z,1003.13
2022-09-14T07:12:43.255Z,1003.09
2022-09-14T07:13:43.209Z,1003.12
2022-09-14T07:14:43.172Z,1003.17
2022-09-14T07:15:43.125Z,1003.15
2022-09-14T07:16:43.076Z,1003.18
2022-09-14T07:17:43.031Z,1003.20
2022-09-14T07:18:43.080Z,1003.16
2022-09-14T07:19:42.942Z,1003.16
2022-09-14T07:20:42.898Z,1003.18
2022-09-14T07:21:42.855Z,1003.16
2022-09-14T07:22:42.809Z,1003.19
2022-09-14T07:23:42.762Z,1003.18
2022-09-14T07:24:42.736Z,1003.19
2022-09-14T07:25:42.678Z,1003.13
2022-09-14T07:26:42.634Z,1003.12
2022-09-14T07:27:42.613Z,1003.18
2022-09-14T07:28:42.544Z,1003.15
2022-09-14T07:29:42.501Z,1003.17
2022-09-14T07:30:42.550Z,1003.18
2022-09-14T07:31:42.409Z,1003.19
2022-09-14T07:32:42.368Z,1003.19
2022-09-14T07:33:42.322Z,1003.18
2022-09-14T07:34:42.282Z,1003.20
2022-09-14T07:35:42.235Z,1003.24
2022-09-14T07:36:42.193Z,1003.22
2022-09-14T07:37:42.146Z,1003.18
2022-09-14T07:38:52.116Z,1003.23
2022-09-14T07:40:26.467Z,1003.22
2022-09-14T07:41:26.400Z,1003.20
2022-09-14T07:42:26.361Z,1003.24
2022-09-14T07:43:26.435Z,1003.19
2022-09-14T07:44:26.276Z,1003.16
2022-09-14T07:45:26.225Z,1003.09
2022-09-14T07:46:26.200Z,1003.12
2022-09-14T07:47:26.135Z,1003.06
2022-09-14T07:48:26.088Z,1003.03
2022-09-14T07:49:26.050Z,1003.03
2022-09-14T07:50:26.001Z,1003.02
2022-09-14T07:51:25.959Z,1003.02
2022-09-14T07:52:25.912Z,1003.01
2022-09-14T07:53:25.902Z,1002.96
2022-09-14T07:54:25.821Z,1002.95
2022-09-14T07:55:25.775Z,1002.95
2022-09-14T07:56:25.884Z,1002.97
2022-09-14T07:57:45.464Z,1003.01
2022-09-14T07:58:25.640Z,1003.03
2022-09-14T07:59:35.600Z,1003.00
2022-09-14T08:00:25.571Z,1003.04
2022-09-14T08:01:25.573Z,1003.03
2022-09-14T08:02:25.547Z,1003.05
2022-09-14T08:03:25.417Z,1003.05
2022-09-14T08:04:25.373Z,1003.01
2022-09-14T08:05:25.348Z,1003.01
2022-09-14T08:06:25.284Z,1003.00
2022-09-14T08:07:25.240Z,1003.00
2022-09-14T08:08:25.190Z,1002.98
2022-09-14T08:09:25.148Z,1002.99
2022-09-14T08:10:25.106Z,1003.01
2022-09-14T08:11:25.058Z,1003.02
2022-09-14T08:12:25.008Z,1003.01
2022-09-14T08:13:25.012Z,1003.01
2022-09-14T08:14:24.924Z,1002.97
2022-09-14T08:15:28.412Z,1003.06
2022-09-14T08:16:24.861Z,1003.06
2022-09-14T08:17:24.791Z,1003.03
2022-09-14T08:18:24.738Z,1003.04
2022-09-14T08:19:24.716Z,1003.04
2022-09-14T08:20:24.666Z,1002.99
2022-09-14T08:21:24.644Z,1002.99
2022-09-14T08:22:24.580Z,1003.00
2022-09-14T08:23:24.564Z,1002.98
2022-09-14T08:24:24.475Z,1002.98
2022-09-14T08:25:24.443Z,1002.91
2022-09-14T08:26:24.382Z,1002.93
2022-09-14T08:27:24.333Z,1002.93
2022-09-14T08:28:24.288Z,1002.91
2022-09-14T08:29:24.243Z,1002.90
2022-09-14T08:30:24.207Z,1002.90
2022-09-14T08:31:24.306Z,1002.90
2022-09-14T08:32:24.106Z,1002.91
2022-09-14T08:33:24.122Z,1002.86
2022-09-14T08:34:24.029Z,1002.88
2022-09-14T08:35:40.774Z,1002.88
2022-09-14T08:36:23.948Z,1002.87
2022-09-14T08:37:23.903Z,1002.88
2022-09-14T08:38:23.840Z,1002.91
2022-09-14T08:39:23.797Z,1002.88
2022-09-14T08:40:23.829Z,1002.88
2022-09-14T08:41:23.710Z,1002.89
2022-09-14T08:42:23.666Z,1002.90
2022-09-14T08:43:23.677Z,1002.86
2022-09-14T08:44:23.575Z,1002.87
2022-09-14T08:45:23.581Z,1002.85
2022-09-14T08:46:23.504Z,1002.80
2022-09-14T08:47:23.463Z,1002.75
2022-09-14T08:48:23.399Z,1002.75
2022-09-14T08:49:23.355Z,1002.72
2022-09-14T08:50:23.334Z,1002.74
2022-09-14T08:51:23.268Z,1002.74
2022-09-14T08:52:23.262Z,1002.74
2022-09-14T08:53:23.258Z,1002.75
2022-09-14T08:54:23.135Z,1002.72
2022-09-14T08:55:23.095Z,1002.72
2022-09-14T08:56:23.052Z,1002.72
2022-09-14T08:57:23.012Z,1002.76
2022-09-14T08:58:22.965Z,1002.71
2022-09-14T08:59:22.917Z,1002.72
2022-09-14T09:00:22.884Z,1002.72
2022-09-14T09:01:22.895Z,1002.72
2022-09-14T09:02:22.786Z,1002.71
2022-09-14T09:03:22.884Z,1002.74
2022-09-14T09:04:22.835Z,1002.72
2022-09-14T09:05:22.655Z,1002.74
2022-09-14T09:06:22.612Z,1002.76
2022-09-14T09:07:22.566Z,1002.77
2022-09-14T09:08:22.521Z,1002.75
2022-09-14T09:09:22.484Z,1002.80
2022-09-14T09:10:22.434Z,1002.79
2022-09-14T09:11:22.393Z,1002.76
2022-09-14T09:12:22.349Z,1002.79
2022-09-14T09:13:22.336Z,1002.81
2022-09-14T09:14:22.260Z,1002.76
2022-09-14T09:15:22.217Z,1002.78
2022-09-14T09:16:22.249Z,1002.78
2022-09-14T09:17:22.131Z,1002.81
2022-09-14T09:18:22.086Z,1002.78
2022-09-14T09:19:25.666Z,1002.73
2022-09-14T09:20:22.003Z,1002.76
2022-09-14T09:21:21.964Z,1002.80
2022-09-14T09:22:21.918Z,1002.78
2022-09-14T09:23:21.867Z,1002.78
2022-09-14T09:24:21.831Z,1002.78
2022-09-14T09:25:21.782Z,1002.80
2022-09-14T09:26:21.737Z,1002.76
2022-09-14T09:27:21.691Z,1002.79
2022-09-14T09:28:21.851Z,1002.79
2022-09-14T09:29:21.608Z,1002.78
2022-09-14T09:30:21.563Z,1002.81
2022-09-14T09:31:21.538Z,1002.81
2022-09-14T09:32:21.472Z,1002.79
2022-09-14T09:33:21.553Z,1002.80
2022-09-14T09:34:21.388Z,1002.81
2022-09-14T09:35:21.413Z,1002.81
2022-09-14T09:36:21.301Z,1002.82
2022-09-14T09:37:21.258Z,1002.83
2022-09-14T09:38:21.212Z,1002.86
2022-09-14T09:39:21.171Z,1002.84
2022-09-14T09:40:21.149Z,1002.87
2022-09-14T09:41:21.085Z,1002.83
2022-09-14T09:42:21.038Z,1002.84
2022-09-14T09:43:38.502Z,1002.82
2022-09-14T09:44:20.953Z,1002.82
2022-09-14T09:45:20.908Z,1002.85
2022-09-14T09:46:21.015Z,1002.83
2022-09-14T09:47:20.820Z,1002.86
2022-09-14T09:48:20.778Z,1002.87
2022-09-14T09:49:20.733Z,1002.85
2022-09-14T09:50:20.690Z,1002.87
2022-09-14T09:51:23.925Z,1002.87
2022-09-14T09:52:20.601Z,1002.89
2022-09-14T09:53:20.605Z,1002.85
2022-09-14T09:54:20.513Z,1002.89
2022-09-14T09:55:20.476Z,1002.92
2022-09-14T09:56:20.428Z,1002.85
2022-09-14T09:57:20.387Z,1002.87
2022-09-14T09:58:20.340Z,1002.83
2022-09-14T09:59:20.296Z,1002.83
2022-09-14T10:00:20.251Z,1002.82
2022-09-14T10:01:20.243Z,1002.84
2022-09-14T10:02:20.292Z,1002.82
2022-09-14T10:03:20.194Z,1002.84
2022-09-14T10:04:20.082Z,1002.80
2022-09-14T10:05:20.040Z,1002.84
2022-09-14T10:06:19.991Z,1002.85
2022-09-14T10:07:19.985Z,1002.87
2022-09-14T10:08:19.903Z,1002.86
2022-09-14T10:09:19.862Z,1002.87
2022-09-14T10:10:19.816Z,1002.88
2022-09-14T10:11:19.775Z,1002.87
2022-09-14T10:12:19.729Z,1002.83
2022-09-14T10:13:19.689Z,1002.87
2022-09-14T10:14:19.643Z,1002.90
2022-09-14T10:15:19.605Z,1002.89
2022-09-14T10:16:19.661Z,1002.89
2022-09-14T10:17:19.514Z,1002.87
2022-09-14T10:18:19.470Z,1002.89
2022-09-14T10:19:19.424Z,1002.90
2022-09-14T10:20:19.380Z,1002.87
2022-09-14T10:21:19.340Z,1002.86
2022-09-14T10:22:24.282Z,1002.86
2022-09-14T10:23:19.426Z,1002.84
2022-09-14T10:24:19.207Z,1002.87
2022-09-14T10:25:19.163Z,1002.84
2022-09-14T10:26:19.122Z,1002.89
2022-09-14T10:27:19.076Z,1002.83
2022-09-14T10:28:19.032Z,1002.91
2022-09-14T10:29:18.990Z,1002.88
2022-09-14T10:30:18.945Z,1002.90
2022-09-14T10:31:18.982Z,1002.90
2022-09-14T10:32:18.857Z,1002.90
2022-09-14T10:33:18.899Z,1002.87
2022-09-14T10:34:18.770Z,1002.90
2022-09-14T10:35:18.730Z,1002.86
2022-09-14T10:36:18.689Z,1002.87
2022-09-14T10:37:18.661Z,1002.81
2022-09-14T10:38:18.604Z,1002.78
2022-09-14T10:39:21.127Z,1002.80
2022-09-14T10:40:18.574Z,1002.81
2022-09-14T10:41:18.468Z,1002.86
2022-09-14T10:42:18.423Z,1002.83
2022-09-14T10:43:18.382Z,1002.85
2022-09-14T10:44:18.334Z,1002.83
2022-09-14T10:45:18.293Z,1002.79
2022-09-14T10:46:18.314Z,1002.75
2022-09-14T10:47:18.207Z,1002.73
2022-09-14T10:48:18.162Z,1002.71
2022-09-14T10:49:18.124Z,1002.66
2022-09-14T10:50:18.074Z,1002.58
2022-09-14T10:51:18.032Z,1002.57
2022-09-14T10:52:17.986Z,1002.53
2022-09-14T10:53:17.989Z,1002.55
2022-09-14T10:54:17.898Z,1002.59
2022-09-14T10:55:17.878Z,1002.63
2022-09-14T10:56:17.812Z,1002.65
2022-09-14T10:57:17.773Z,1002.73
2022-09-14T10:58:21.320Z,1002.69
2022-09-14T10:59:17.685Z,1002.69
2022-09-14T11:00:17.640Z,1002.70
2022-09-14T11:01:17.652Z,1002.70
2022-09-14T11:02:17.664Z,1002.67
2022-09-14T11:03:17.566Z,1002.66
2022-09-14T11:04:17.480Z,1002.64
2022-09-14T11:05:17.427Z,1002.65
2022-09-14T11:06:17.379Z,1002.70
2022-09-14T11:07:17.336Z,1002.66
2022-09-14T11:08:17.293Z,1002.61
2022-09-14T11:09:17.250Z,1002.59
2022-09-14T11:10:17.206Z,1002.53
2022-09-14T11:11:17.198Z,1002.56
2022-09-14T11:12:17.116Z,1002.56
2022-09-14T11:13:17.075Z,1002.55
2022-09-14T11:14:17.029Z,1002.54
2022-09-14T11:15:16.986Z,1002.52
2022-09-14T11:16:17.022Z,1002.58
2022-09-14T11:17:16.901Z,1002.63
2022-09-14T11:18:17.664Z,1002.57
2022-09-14T11:19:16.812Z,1002.65
2022-09-14T11:20:16.769Z,1002.64
2022-09-14T11:21:16.727Z,1002.64
2022-09-14T11:22:16.680Z,1002.63
2022-09-14T11:23:16.639Z,1002.65
2022-09-14T11:24:16.595Z,1002.64
2022-09-14T11:25:16.553Z,1002.66
2022-09-14T11:26:16.507Z,1002.61
2022-09-14T11:27:16.483Z,1002.61
2022-09-14T11:28:16.421Z,1002.60
2022-09-14T11:29:16.376Z,1002.62
2022-09-14T11:30:16.332Z,1002.60
2022-09-14T11:31:16.364Z,1002.57
2022-09-14T11:32:21.277Z,1002.59
2022-09-14T11:33:16.208Z,1002.51
2022-09-14T11:34:16.163Z,1002.51
2022-09-14T11:35:16.133Z,1002.43
2022-09-14T11:36:16.073Z,1002.42
2022-09-14T11:37:16.031Z,1002.36
2022-09-14T11:39:15.939Z,1002.32
2022-09-14T11:40:16.020Z,1002.24
2022-09-14T11:41:15.854Z,1002.26
2022-09-14T11:42:15.815Z,1002.25
2022-09-14T11:43:15.782Z,1002.23
2022-09-14T11:44:15.726Z,1002.26
2022-09-14T11:45:15.679Z,1002.21
2022-09-14T11:46:15.708Z,1002.22
2022-09-14T11:47:15.592Z,1002.22
2022-09-14T11:48:41.243Z,1002.21
2022-09-14T11:49:15.505Z,1002.21
2022-09-14T11:50:15.466Z,1002.20
2022-09-14T11:51:15.496Z,1002.17
2022-09-14T11:52:15.375Z,1002.27
2022-09-14T11:53:15.344Z,1002.28
2022-09-14T11:54:15.289Z,1002.33
2022-09-14T11:55:15.250Z,1002.42
2022-09-14T11:56:15.200Z,1002.41
2022-09-14T11:57:15.157Z,1002.48
2022-09-14T11:58:15.110Z,1002.45
2022-09-14T11:59:15.107Z,1002.43
2022-09-14T12:00:15.023Z,1002.39
2022-09-14T12:01:14.983Z,1002.33
2022-09-14T12:02:14.970Z,1002.28
2022-09-14T12:03:14.944Z,1002.22
2022-09-14T12:04:14.976Z,1002.26
2022-09-14T12:05:14.812Z,1002.26
2022-09-14T12:06:14.765Z,1002.24
2022-09-14T12:07:14.719Z,1002.26
2022-09-14T12:08:14.675Z,1002.28
2022-09-14T12:09:14.637Z,1002.26
2022-09-14T12:10:14.594Z,1002.21
2022-09-14T12:11:14.548Z,1002.27